Time;durP1;ratioP1;P1;durP2;ratioP2;P2;SDS_P1;SDS_P2;PMS_P1;PMS_P2;Temp;Humidity;BMP_temperature;BMP_pressure;BME280_temperature;BME280_humidity;BME280_pressure;Samples;Min_cycle;Max_cycle;Signal;HPM_P1;HPM_P2
2023/08/19 00:01:31;;;;;;;29.63;25.90;;;21.50;99.90;;;;;;5082375;28;20048;-57
2023/08/19 00:03:57;;;;;;;29.95;26.77;;;21.40;99.90;;;;;;5102918;28;20047;-58
2023/08/19 00:06:39;;;;;;;31.75;27.15;;;21.50;99.90;;;;;;5102696;28;20046;-57
2023/08/19 00:09:08;;;;;;;34.00;26.83;;;21.40;99.90;;;;;;5100889;28;20067;-58
2023/08/19 00:11:38;;;;;;;33.03;26.50;;;21.40;99.90;;;;;;5068557;28;20101;-58
2023/08/19 00:14:05;;;;;;;29.77;26.70;;;21.40;99.90;;;;;;5088786;28;20083;-57
2023/08/19 00:16:31;;;;;;;30.45;27.27;;;21.40;99.90;;;;;;5070234;28;20037;-57
2023/08/19 00:18:58;;;;;;;31.27;27.98;;;21.40;99.90;;;;;;5087923;28;20213;-57
2023/08/19 00:21:24;;;;;;;30.30;27.02;;;21.30;99.90;;;;;;5088479;28;20075;-57
2023/08/19 00:23:50;;;;;;;31.08;27.92;;;21.30;99.90;;;;;;5064385;28;20033;-58
2023/08/19 00:26:16;;;;;;;31.35;27.95;;;21.30;99.90;;;;;;5080687;28;20048;-58
2023/08/19 00:28:42;;;;;;;30.85;27.55;;;21.30;99.90;;;;;;5083089;28;20072;-58
2023/08/19 00:31:08;;;;;;;31.88;27.60;;;21.30;99.90;;;;;;5081084;28;20047;-58
2023/08/19 00:33:34;;;;;;;32.05;27.88;;;21.30;99.90;;;;;;5082572;28;20071;-57
2023/08/19 00:36:01;;;;;;;32.80;29.33;;;21.20;99.90;;;;;;5079727;28;20060;-57
2023/08/19 00:38:27;;;;;;;30.80;27.50;;;21.20;99.90;;;;;;5080502;28;20048;-58
2023/08/19 00:40:53;;;;;;;30.08;27.08;;;21.20;99.90;;;;;;5080314;28;20503;-57
2023/08/19 00:43:18;;;;;;;31.83;27.65;;;21.20;99.90;;;;;;5079510;28;20052;-58
2023/08/19 00:45:48;;;;;;;33.83;29.40;;;21.20;99.90;;;;;;5081653;28;20036;-58
2023/08/19 00:48:15;;;;;;;32.20;28.45;;;21.20;99.90;;;;;;5080581;28;20080;-58
2023/08/19 00:50:41;;;;;;;30.42;27.25;;;21.20;99.90;;;;;;5082749;28;20366;-58
2023/08/19 00:53:08;;;;;;;33.78;27.58;;;21.20;99.90;;;;;;5080214;28;20033;-58
2023/08/19 00:55:35;;;;;;;32.20;28.75;;;21.20;99.90;;;;;;5097895;28;20051;-57
2023/08/19 00:58:03;;;;;;;30.10;27.10;;;21.10;99.90;;;;;;5088259;28;20077;-58
2023/08/19 01:00:32;;;;;;;33.78;27.80;;;21.10;99.90;;;;;;5080516;28;20054;-58
2023/08/19 01:02:59;;;;;;;34.38;29.55;;;21.10;99.90;;;;;;5095743;28;20067;-58
2023/08/19 01:05:35;;;;;;;32.50;29.13;;;21.10;99.90;;;;;;5098836;28;20395;-58
2023/08/19 01:08:01;;;;;;;;;;;21.10;99.90;;;;;;5092779;28;20115;-57
2023/08/19 01:10:36;;;;;;;30.60;27.40;;;21.10;99.90;;;;;;5079085;28;19920;-57
2023/08/19 01:13:05;;;;;;;31.27;27.98;;;21.10;99.90;;;;;;5086384;28;20059;-57
2023/08/19 01:15:35;;;;;;;32.58;29.08;;;21.10;99.90;;;;;;5101785;28;20084;-57
2023/08/19 01:18:05;;;;;;;31.27;28.00;;;21.10;99.90;;;;;;5096310;28;20519;-58
2023/08/19 01:20:31;;;;;;;31.08;27.88;;;21.10;99.90;;;;;;5091817;28;20083;-57
2023/08/19 01:23:05;;;;;;;32.50;28.92;;;21.10;99.90;;;;;;5079458;28;20055;-57
2023/08/19 01:25:32;;;;;;;36.15;28.92;;;21.00;99.90;;;;;;5079386;28;20079;-58
2023/08/19 01:28:03;;;;;;;32.80;29.17;;;21.00;99.90;;;;;;5061401;28;20037;-57
2023/08/19 01:30:30;;;;;;;31.73;28.33;;;21.00;99.90;;;;;;5059977;28;20073;-58
2023/08/19 01:32:57;;;;;;;34.28;30.10;;;21.00;99.90;;;;;;5061368;28;20049;-57
2023/08/19 01:35:24;;;;;;;32.30;28.90;;;21.00;99.90;;;;;;5068282;28;20092;-57
2023/08/19 01:38:03;;;;;;;33.45;29.85;;;21.00;99.90;;;;;;5081672;28;20052;-57
2023/08/19 01:40:30;;;;;;;31.33;28.10;;;21.00;99.90;;;;;;5080679;28;20072;-57
2023/08/19 01:42:57;;;;;;;33.22;28.60;;;20.90;99.90;;;;;;5074854;28;20080;-58
2023/08/19 01:45:23;;;;;;;32.30;28.08;;;20.90;99.90;;;;;;5060984;28;20045;-58
2023/08/19 01:47:55;;;;;;;31.90;28.52;;;20.90;99.90;;;;;;5073873;28;20082;-58
2023/08/19 01:50:21;;;;;;;31.52;28.17;;;20.90;99.90;;;;;;5081557;28;20104;-57
2023/08/19 01:52:47;;;;;;;33.65;28.65;;;20.90;99.90;;;;;;5079427;28;20044;-58
2023/08/19 01:55:12;;;;;;;32.60;29.15;;;20.90;99.90;;;;;;5086127;28;20044;-58
2023/08/19 01:57:38;;;;;;;31.50;28.20;;;20.90;99.90;;;;;;5096622;28;20052;-57
2023/08/19 02:00:05;;;;;;;31.15;28.10;;;20.90;99.90;;;;;;5074985;28;20037;-57
2023/08/19 02:02:31;;;;;;;32.22;28.75;;;20.80;99.90;;;;;;5099361;28;20090;-57
2023/08/19 02:04:56;;;;;;;33.90;29.75;;;20.90;99.90;;;;;;5089627;28;20033;-58
2023/08/19 02:07:22;;;;;;;32.47;29.10;;;20.80;99.90;;;;;;5082369;28;20052;-58
2023/08/19 02:09:48;;;;;;;33.00;29.58;;;20.80;99.90;;;;;;5078181;28;20040;-57
2023/08/19 02:12:13;;;;;;;31.33;28.02;;;20.80;99.90;;;;;;5096078;28;20048;-59
2023/08/19 02:14:39;;;;;;;31.58;28.40;;;20.80;99.90;;;;;;5075856;28;20052;-57
2023/08/19 02:17:05;;;;;;;30.02;26.73;;;20.80;99.90;;;;;;5096544;28;20039;-57
2023/08/19 02:19:30;;;;;;;33.65;30.02;;;20.80;99.90;;;;;;5081653;28;20028;-58
2023/08/19 02:21:56;;;;;;;31.20;28.05;;;20.80;99.90;;;;;;5070846;28;20087;-56
2023/08/19 02:24:22;;;;;;;31.70;28.30;;;20.80;99.90;;;;;;5053763;28;20045;-57
2023/08/19 02:26:47;;;;;;;31.52;28.10;;;20.80;99.90;;;;;;5051302;28;20052;-58
2023/08/19 02:29:13;;;;;;;33.60;30.02;;;20.80;99.90;;;;;;5053616;28;20702;-58
2023/08/19 02:31:39;;;;;;;32.03;28.58;;;20.80;99.90;;;;;;5052043;28;20057;-58
2023/08/19 02:34:05;;;;;;;32.83;29.48;;;20.70;99.90;;;;;;5052520;28;20052;-57
2023/08/19 02:36:31;;;;;;;33.58;29.00;;;20.80;99.90;;;;;;5052441;28;20055;-57
2023/08/19 02:38:57;;;;;;;35.13;29.08;;;20.80;99.90;;;;;;5052003;28;20071;-58
2023/08/19 02:41:23;;;;;;;32.17;28.67;;;20.70;99.90;;;;;;5071687;28;20044;-58
2023/08/19 02:43:50;;;;;;;33.47;29.42;;;20.70;99.90;;;;;;5069955;28;20055;-58
2023/08/19 02:46:15;;;;;;;32.45;29.05;;;20.70;99.90;;;;;;5081561;28;20045;-58
2023/08/19 02:48:41;;;;;;;32.80;28.25;;;20.70;99.90;;;;;;5069885;28;20508;-57
2023/08/19 02:51:07;;;;;;;29.70;26.60;;;20.70;99.90;;;;;;5079059;28;20037;-58
2023/08/19 02:53:33;;;;;;;29.88;26.58;;;20.70;99.90;;;;;;5087041;28;20089;-57
2023/08/19 02:55:59;;;;;;;30.88;27.58;;;20.70;99.90;;;;;;5079516;28;20055;-58
2023/08/19 02:58:25;;;;;;;32.08;27.90;;;20.70;99.90;;;;;;5090883;28;20074;-58
2023/08/19 03:00:51;;;;;;;31.08;27.85;;;20.70;99.90;;;;;;5074560;28;20093;-58
2023/08/19 03:03:17;;;;;;;30.27;27.08;;;20.70;99.90;;;;;;5086849;28;20534;-58
2023/08/19 03:05:43;;;;;;;30.30;27.02;;;20.70;99.90;;;;;;5078854;28;20119;-57
2023/08/19 03:08:10;;;;;;;30.42;27.23;;;20.70;99.90;;;;;;5072849;28;20037;-58
2023/08/19 03:10:40;;;;;;;29.73;26.25;;;20.60;99.90;;;;;;5063477;28;20056;-57
2023/08/19 03:13:07;;;;;;;30.45;27.10;;;20.70;99.90;;;;;;5071690;28;20098;-57
2023/08/19 03:15:35;;;;;;;32.42;27.20;;;20.70;99.90;;;;;;5104069;28;20051;-58
2023/08/19 03:18:01;;;;;;;30.25;27.05;;;20.70;99.90;;;;;;5081790;28;20496;-58
2023/08/19 03:20:27;;;;;;;30.00;26.90;;;20.70;99.90;;;;;;5083410;28;20033;-58
2023/08/19 03:22:53;;;;;;;31.42;26.83;;;20.70;99.90;;;;;;5082837;28;20234;-58
2023/08/19 03:25:19;;;;;;;33.50;27.95;;;20.70;99.90;;;;;;5094463;28;20036;-59
2023/08/19 03:27:44;;;;;;;29.92;26.80;;;20.70;99.90;;;;;;5087960;28;20535;-58
2023/08/19 03:30:10;;;;;;;29.75;26.60;;;20.70;99.90;;;;;;5082726;28;20105;-58
2023/08/19 03:32:36;;;;;;;32.03;27.75;;;20.70;99.90;;;;;;5083662;28;20049;-58
2023/08/19 03:35:02;;;;;;;31.90;27.30;;;20.70;99.90;;;;;;5099069;28;20054;-57
2023/08/19 03:37:28;;;;;;;31.75;28.35;;;20.70;99.90;;;;;;5103957;28;20044;-58
2023/08/19 03:39:54;;;;;;;30.83;27.52;;;20.70;99.90;;;;;;5084321;28;20050;-58
2023/08/19 03:42:20;;;;;;;31.38;26.08;;;20.70;99.90;;;;;;5074268;28;20059;-58
2023/08/19 03:44:45;;;;;;;29.65;26.52;;;20.60;99.90;;;;;;5094949;28;20051;-57
2023/08/19 03:47:12;;;;;;;30.40;27.13;;;20.70;99.90;;;;;;5095448;28;20032;-58
2023/08/19 03:49:38;;;;;;;29.73;26.52;;;20.70;99.90;;;;;;5095332;28;20040;-57
2023/08/19 03:52:06;;;;;;;29.48;26.15;;;20.70;99.90;;;;;;5088634;28;20137;-58
2023/08/19 03:54:32;;;;;;;30.23;25.70;;;20.70;99.90;;;;;;5093228;28;20500;-57
2023/08/19 03:56:57;;;;;;;31.15;25.35;;;20.70;99.90;;;;;;5080339;28;20058;-58
2023/08/19 03:59:23;;;;;;;28.45;25.02;;;20.70;99.90;;;;;;5083321;28;20049;-57
2023/08/19 04:01:49;;;;;;;28.90;26.00;;;20.70;99.90;;;;;;5084091;28;20112;-58
2023/08/19 04:04:15;;;;;;;32.85;25.75;;;20.70;99.90;;;;;;5090953;28;20044;-57
2023/08/19 04:06:40;;;;;;;29.23;23.98;;;20.70;99.90;;;;;;5083194;28;20037;-57
2023/08/19 04:09:07;;;;;;;28.38;25.00;;;20.70;99.90;;;;;;5081691;28;20037;-57
2023/08/19 04:11:33;;;;;;;27.48;24.65;;;20.70;99.90;;;;;;5082854;28;20580;-57
2023/08/19 04:13:58;;;;;;;27.67;24.55;;;20.70;99.90;;;;;;5082869;28;20047;-58
2023/08/19 04:16:24;;;;;;;27.83;24.70;;;20.70;99.90;;;;;;5080599;28;20049;-57
2023/08/19 04:18:51;;;;;;;27.10;24.00;;;20.70;99.90;;;;;;5085785;28;20040;-57
2023/08/19 04:21:17;;;;;;;30.05;25.77;;;20.70;99.90;;;;;;5101808;28;20557;-57
2023/08/19 04:23:43;;;;;;;28.85;24.77;;;20.80;99.90;;;;;;5083343;28;20047;-57
2023/08/19 04:26:08;;;;;;;26.85;23.98;;;20.80;99.90;;;;;;5065250;28;20033;-57
2023/08/19 04:28:34;;;;;;;27.65;23.73;;;20.80;99.90;;;;;;5074231;28;20040;-58
2023/08/19 04:31:05;;;;;;;26.73;23.80;;;20.80;99.90;;;;;;5088379;28;20049;-58
2023/08/19 04:33:32;;;;;;;26.30;22.45;;;20.80;99.90;;;;;;5081189;28;20036;-58
2023/08/19 04:35:58;;;;;;;27.38;23.27;;;20.90;99.90;;;;;;5078630;28;20412;-57
2023/08/19 04:38:24;;;;;;;25.20;22.63;;;20.90;99.90;;;;;;5080251;28;20128;-57
2023/08/19 04:40:50;;;;;;;25.55;22.85;;;20.90;99.90;;;;;;5080723;28;20044;-58
2023/08/19 04:43:20;;;;;;;28.80;22.77;;;20.90;99.90;;;;;;5077523;28;20087;-56
2023/08/19 04:45:46;;;;;;;24.92;22.35;;;20.90;99.90;;;;;;5082424;28;20104;-57
2023/08/19 04:48:11;;;;;;;24.20;21.58;;;20.90;99.90;;;;;;5080378;28;20036;-57
2023/08/19 04:50:37;;;;;;;24.40;21.90;;;21.00;99.90;;;;;;5080552;28;20029;-57
2023/08/19 04:53:03;;;;;;;25.17;22.58;;;21.00;99.90;;;;;;5079312;28;20041;-57
2023/08/19 04:55:29;;;;;;;27.05;22.38;;;21.00;99.90;;;;;;5081676;28;20047;-58
2023/08/19 04:57:55;;;;;;;26.98;22.67;;;21.00;99.90;;;;;;5080037;28;20106;-57
2023/08/19 05:00:21;;;;;;;24.17;21.48;;;21.00;99.90;;;;;;5080806;28;20044;-57
2023/08/19 05:02:48;;;;;;;26.25;22.23;;;21.00;99.90;;;;;;5082227;28;20071;-57
2023/08/19 05:05:14;;;;;;;27.08;21.38;;;21.00;99.90;;;;;;5060298;28;20101;-57
2023/08/19 05:07:40;;;;;;;23.45;21.15;;;21.00;99.90;;;;;;5076420;28;20045;-57
2023/08/19 05:10:06;;;;;;;22.65;20.05;;;21.00;99.90;;;;;;5093768;28;20107;-56
2023/08/19 05:12:32;;;;;;;23.33;20.73;;;21.10;99.90;;;;;;5079222;28;20043;-57
2023/08/19 05:14:58;;;;;;;24.27;20.10;;;21.10;99.90;;;;;;5080605;28;20127;-56
2023/08/19 05:17:23;;;;;;;21.67;19.10;;;21.10;99.90;;;;;;5090492;28;20044;-57
2023/08/19 05:19:49;;;;;;;22.75;20.35;;;21.10;99.90;;;;;;5100061;28;20044;-58
2023/08/19 05:22:15;;;;;;;22.33;19.70;;;21.10;99.90;;;;;;5091125;28;20378;-57
2023/08/19 05:24:41;;;;;;;24.48;19.48;;;21.20;99.90;;;;;;5079402;28;20076;-57
2023/08/19 05:27:07;;;;;;;23.45;19.60;;;21.10;99.90;;;;;;5090736;28;20080;-57
2023/08/19 05:29:32;;;;;;;21.75;18.27;;;21.20;99.90;;;;;;5081809;28;20090;-57
2023/08/19 05:31:58;;;;;;;22.05;19.70;;;21.20;99.90;;;;;;5080971;28;20032;-57
2023/08/19 05:34:25;;;;;;;22.67;20.25;;;21.20;99.90;;;;;;5067042;28;20057;-57
2023/08/19 05:36:51;;;;;;;22.70;19.55;;;21.20;99.90;;;;;;5077313;28;20071;-57
2023/08/19 05:39:16;;;;;;;23.10;18.80;;;21.20;99.90;;;;;;5074298;28;20578;-57
2023/08/19 05:41:42;;;;;;;21.70;18.60;;;21.30;99.90;;;;;;5061633;28;20057;-58
2023/08/19 05:44:08;;;;;;;23.60;19.63;;;21.30;99.90;;;;;;5071113;28;20053;-57
2023/08/19 05:46:34;;;;;;;22.55;18.98;;;21.30;99.90;;;;;;5085183;28;20035;-57
2023/08/19 05:49:00;;;;;;;20.77;18.58;;;21.30;99.90;;;;;;5099248;28;20083;-57
2023/08/19 05:51:26;;;;;;;20.85;18.30;;;21.30;99.90;;;;;;5077700;28;20087;-57
2023/08/19 05:53:58;;;;;;;22.70;18.02;;;21.40;99.90;;;;;;5071223;28;20040;-57
2023/08/19 05:56:24;;;;;;;18.92;16.90;;;21.40;99.90;;;;;;5079325;28;20037;-57
2023/08/19 05:58:50;;;;;;;20.33;17.90;;;21.40;99.90;;;;;;5085926;28;20054;-57
2023/08/19 06:01:16;;;;;;;20.60;18.50;;;21.40;99.90;;;;;;5087130;28;20114;-57
2023/08/19 06:03:41;;;;;;;24.52;18.58;;;21.40;99.90;;;;;;5089260;28;20039;-57
2023/08/19 06:06:07;;;;;;;21.05;17.67;;;21.50;99.90;;;;;;5098877;28;20036;-56
2023/08/19 06:08:34;;;;;;;20.60;17.88;;;21.40;99.90;;;;;;5072531;28;20559;-57
2023/08/19 06:11:06;;;;;;;20.13;18.02;;;21.40;99.90;;;;;;5082616;28;20052;-57
2023/08/19 06:13:33;;;;;;;21.50;19.25;;;21.50;99.90;;;;;;5068958;28;20146;-57
2023/08/19 06:15:59;;;;;;;21.48;17.98;;;21.50;99.90;;;;;;5081583;28;20072;-57
2023/08/19 06:18:25;;;;;;;21.67;17.92;;;21.50;99.90;;;;;;5075520;28;20029;-57
2023/08/19 06:20:52;;;;;;;23.10;18.33;;;21.50;99.90;;;;;;5079597;28;20333;-57
2023/08/19 06:23:18;;;;;;;24.02;17.98;;;21.50;99.90;;;;;;5071691;28;20029;-57
2023/08/19 06:25:51;;;;;;;19.00;17.10;;;21.50;99.90;;;;;;5075698;28;20039;-57
2023/08/19 06:28:18;;;;;;;19.17;15.50;;;21.60;99.90;;;;;;5079499;28;20512;-57
2023/08/19 06:30:45;;;;;;;21.40;16.92;;;21.60;99.90;;;;;;5078691;28;20044;-57
2023/08/19 06:33:13;;;;;;;19.27;15.77;;;21.60;99.90;;;;;;5079323;28;20040;-58
2023/08/19 06:35:39;;;;;;;19.95;17.45;;;21.70;99.90;;;;;;5077990;28;20028;-57
2023/08/19 06:38:23;;;;;;;19.35;16.73;;;21.70;99.90;;;;;;5078943;28;20051;-57
2023/08/19 06:41:11;;;;;;;19.27;17.08;;;21.80;99.90;;;;;;5059233;28;20048;-57
2023/08/19 06:43:40;;;;;;;20.63;16.17;;;21.80;99.90;;;;;;5058386;28;20052;-57
2023/08/19 06:46:07;;;;;;;21.13;16.92;;;21.90;99.90;;;;;;5063436;28;20037;-57
2023/08/19 06:48:34;;;;;;;20.40;16.27;;;21.90;99.90;;;;;;5077964;28;20044;-56
2023/08/19 06:51:01;;;;;;;19.23;16.38;;;21.90;99.90;;;;;;5076479;28;20059;-57
2023/08/19 06:53:27;;;;;;;21.70;16.55;;;22.00;99.90;;;;;;5085708;28;20092;-57
2023/08/19 06:56:12;;;;;;;22.67;16.27;;;22.10;99.90;;;;;;5079968;28;20060;-58
2023/08/19 06:58:46;;;;;;;22.73;16.13;;;21.90;99.90;;;;;;5099508;28;20047;-57
2023/08/19 07:01:20;;;;;;;18.98;16.05;;;22.10;99.90;;;;;;5074071;28;20044;-56
2023/08/19 07:03:46;;;;;;;18.63;16.67;;;22.10;99.90;;;;;;5083149;28;20127;-57
2023/08/19 07:06:15;;;;;;;21.38;16.85;;;22.10;99.90;;;;;;5070488;28;20297;-57
2023/08/19 07:08:43;;;;;;;18.80;16.02;;;22.20;99.90;;;;;;5092724;28;20036;-57
2023/08/19 07:11:09;;;;;;;19.02;16.88;;;22.20;99.90;;;;;;5087879;28;20037;-58
2023/08/19 07:13:36;;;;;;;17.20;15.15;;;22.30;99.90;;;;;;5082524;28;20072;-57
2023/08/19 07:16:03;;;;;;;19.48;16.10;;;22.30;99.90;;;;;;5080270;28;20464;-57
2023/08/19 07:18:38;;;;;;;16.80;14.90;;;22.40;99.90;;;;;;5076521;28;20086;-58
2023/08/19 07:21:07;;;;;;;17.02;15.30;;;22.40;99.90;;;;;;5059405;28;20044;-58
2023/08/19 07:23:33;;;;;;;18.92;15.48;;;22.40;99.90;;;;;;5067051;28;20041;-57
2023/08/19 07:25:59;;;;;;;18.20;15.77;;;22.50;99.90;;;;;;5076833;28;20044;-57
2023/08/19 07:28:25;;;;;;;18.83;14.60;;;22.50;99.90;;;;;;5076793;28;20047;-57
2023/08/19 07:30:51;;;;;;;17.00;15.20;;;22.50;99.90;;;;;;5074159;28;20397;-57
2023/08/19 07:33:18;;;;;;;17.25;15.13;;;22.60;99.90;;;;;;5079922;28;20448;-56
2023/08/19 07:35:44;;;;;;;17.48;14.18;;;22.60;99.90;;;;;;5073469;28;20421;-56
2023/08/19 07:38:10;;;;;;;17.85;14.23;;;22.70;99.90;;;;;;5080642;28;20075;-57
2023/08/19 07:40:36;;;;;;;18.05;14.23;;;22.70;99.90;;;;;;5069931;28;20053;-57
2023/08/19 07:43:02;;;;;;;17.30;13.88;;;22.80;99.90;;;;;;5077999;28;20124;-57
2023/08/19 07:45:28;;;;;;;21.35;14.60;;;22.80;99.90;;;;;;5080567;28;20323;-57
2023/08/19 07:47:53;;;;;;;16.10;13.43;;;22.80;99.90;;;;;;5086123;28;20036;-58
2023/08/19 07:50:19;;;;;;;15.73;14.07;;;22.90;99.90;;;;;;5081382;28;20090;-58
2023/08/19 07:52:45;;;;;;;18.30;13.07;;;23.00;99.90;;;;;;5074336;28;20063;-60
2023/08/19 07:55:10;;;;;;;15.93;13.93;;;23.00;99.90;;;;;;5081833;28;20090;-59
2023/08/19 07:57:36;;;;;;;17.50;13.82;;;23.10;99.90;;;;;;5087407;28;20094;-60
2023/08/19 08:00:02;;;;;;;16.20;13.75;;;23.20;99.90;;;;;;5079298;28;20032;-57
2023/08/19 08:02:28;;;;;;;19.60;13.50;;;23.30;99.90;;;;;;5094458;28;20047;-57
2023/08/19 08:04:54;;;;;;;18.73;13.45;;;23.40;99.90;;;;;;5080839;28;20096;-57
2023/08/19 08:07:20;;;;;;;17.33;13.57;;;23.40;99.90;;;;;;5079903;28;20100;-57
2023/08/19 08:09:46;;;;;;;18.30;12.82;;;23.50;99.90;;;;;;5071088;28;20048;-57
2023/08/19 08:12:12;;;;;;;14.73;12.73;;;23.50;99.90;;;;;;5075263;28;20501;-57
2023/08/19 08:14:37;;;;;;;15.63;12.60;;;23.70;99.90;;;;;;5073999;28;20052;-56
2023/08/19 08:17:03;;;;;;;16.20;12.50;;;23.70;99.90;;;;;;5077956;28;20032;-58
2023/08/19 08:19:29;;;;;;;15.60;12.73;;;23.80;99.90;;;;;;5084046;28;20037;-57
2023/08/19 08:21:54;;;;;;;15.40;12.20;;;23.90;99.90;;;;;;5091453;28;20043;-57
2023/08/19 08:24:22;;;;;;;16.42;12.45;;;23.90;99.90;;;;;;5103684;28;20047;-57
2023/08/19 08:26:47;;;;;;;14.18;11.13;;;24.00;99.90;;;;;;5085464;28;20040;-57
2023/08/19 08:29:13;;;;;;;13.27;11.90;;;24.00;99.90;;;;;;5080087;28;20049;-57
2023/08/19 08:31:39;;;;;;;17.23;11.20;;;24.10;99.90;;;;;;5076678;28;20054;-57
2023/08/19 08:34:05;;;;;;;14.23;11.40;;;24.20;99.90;;;;;;5062793;28;20060;-56
2023/08/19 08:36:31;;;;;;;14.80;10.02;;;24.20;99.90;;;;;;5073852;28;20062;-57
2023/08/19 08:38:57;;;;;;;16.17;11.23;;;24.20;99.90;;;;;;5079618;28;20049;-57
2023/08/19 08:41:23;;;;;;;13.77;11.13;;;24.20;99.90;;;;;;5081854;28;20049;-57
2023/08/19 08:43:49;;;;;;;16.10;11.68;;;24.20;99.90;;;;;;5067775;28;20559;-57
2023/08/19 08:46:16;;;;;;;15.27;11.60;;;24.20;99.90;;;;;;5075718;28;20052;-57
2023/08/19 08:48:44;;;;;;;13.52;11.07;;;24.30;99.90;;;;;;5070014;28;20117;-57
2023/08/19 08:51:10;;;;;;;11.85;9.80;;;24.30;99.90;;;;;;5065610;28;20049;-57
2023/08/19 08:53:36;;;;;;;13.75;10.90;;;24.30;99.90;;;;;;5082281;28;20044;-57
2023/08/19 08:56:03;;;;;;;16.33;11.15;;;24.40;99.90;;;;;;5078084;28;20048;-57
2023/08/19 08:58:28;;;;;;;13.88;10.05;;;24.40;99.90;;;;;;5080041;28;20048;-57
2023/08/19 09:00:54;;;;;;;13.23;9.23;;;24.50;99.90;;;;;;5079940;28;20240;-56
2023/08/19 09:03:24;;;;;;;12.52;9.60;;;24.50;99.90;;;;;;5075370;28;20064;-57
2023/08/19 09:05:54;;;;;;;12.48;9.57;;;24.60;99.90;;;;;;5080268;28;20041;-57
2023/08/19 09:08:30;;;;;;;12.98;9.45;;;24.70;99.90;;;;;;5078764;28;20110;-57
2023/08/19 09:11:00;;;;;;;13.32;9.52;;;25.00;99.90;;;;;;5079898;28;20375;-57
2023/08/19 09:13:27;;;;;;;14.50;9.27;;;24.80;99.90;;;;;;5078625;28;20102;-57
2023/08/19 09:15:54;;;;;;;11.35;8.40;;;25.00;99.90;;;;;;5082159;28;20032;-57
2023/08/19 09:18:20;;;;;;;15.00;8.55;;;25.10;99.90;;;;;;5073115;28;20040;-56
2023/08/19 09:20:47;;;;;;;11.07;8.82;;;25.20;99.90;;;;;;5081536;28;20047;-57
2023/08/19 09:23:13;;;;;;;13.20;8.95;;;25.20;99.90;;;;;;5068172;28;20488;-56
2023/08/19 09:25:40;;;;;;;12.93;8.82;;;25.30;99.90;;;;;;5076856;28;20040;-58
2023/08/19 09:28:06;;;;;;;14.13;9.68;;;25.20;99.90;;;;;;5077655;28;20052;-57
2023/08/19 09:30:33;;;;;;;12.70;9.32;;;25.20;99.90;;;;;;5073796;28;20160;-57
2023/08/19 09:32:59;;;;;;;11.23;8.52;;;25.10;99.90;;;;;;5078105;28;20040;-57
2023/08/19 09:35:33;;;;;;;10.82;9.65;;;25.10;99.90;;;;;;5078558;28;20059;-57
2023/08/19 09:37:59;;;;;;;13.68;9.63;;;25.00;99.90;;;;;;5080398;28;20050;-57
2023/08/19 09:40:25;;;;;;;15.30;10.73;;;25.00;99.90;;;;;;5063433;28;20055;-57
2023/08/19 09:42:50;;;;;;;16.83;11.13;;;24.90;99.90;;;;;;5059277;28;20101;-57
2023/08/19 09:45:21;;;;;;;13.02;11.25;;;24.80;99.90;;;;;;5060894;28;20040;-57
2023/08/19 09:47:50;;;;;;;14.27;10.68;;;24.80;99.90;;;;;;5077459;28;20048;-57
2023/08/19 09:50:18;;;;;;;12.63;11.27;;;24.80;99.90;;;;;;5081416;28;20039;-56
2023/08/19 09:52:59;;;;;;;15.20;10.70;;;24.70;99.90;;;;;;5078502;28;20048;-56
2023/08/19 09:55:27;;;;;;;14.40;10.25;;;24.70;99.90;;;;;;5078680;28;20068;-57
2023/08/19 09:57:53;;;;;;;15.05;10.95;;;24.60;99.90;;;;;;5075178;28;20041;-57
2023/08/19 10:00:18;;;;;;;15.45;11.23;;;24.60;99.90;;;;;;5074730;28;20047;-57
2023/08/19 10:02:44;;;;;;;17.63;11.50;;;24.60;99.90;;;;;;5081205;28;20045;-57
2023/08/19 10:05:10;;;;;;;20.08;12.25;;;24.60;99.90;;;;;;5079320;28;20041;-55
2023/08/19 10:07:39;;;;;;;13.00;10.82;;;24.60;99.90;;;;;;5081165;28;20043;-57
2023/08/19 10:10:07;;;;;;;13.25;10.25;;;24.60;99.90;;;;;;5062865;28;20044;-56
2023/08/19 10:12:35;;;;;;;14.68;11.65;;;24.60;99.90;;;;;;5077747;28;20048;-57
2023/08/19 10:15:03;;;;;;;15.32;10.93;;;24.60;99.90;;;;;;5079452;28;20036;-57
2023/08/19 10:17:32;;;;;;;13.75;10.75;;;24.80;99.90;;;;;;5085389;28;20043;-57
2023/08/19 10:20:10;;;;;;;13.70;11.43;;;24.80;99.90;;;;;;5067045;28;20130;-57
2023/08/19 10:22:44;;;;;;;13.48;11.68;;;24.90;99.90;;;;;;5098722;28;20048;-57
2023/08/19 10:25:11;;;;;;;15.20;11.82;;;24.90;99.90;;;;;;5100585;28;20457;-57
2023/08/19 10:27:37;;;;;;;14.88;12.02;;;25.00;99.90;;;;;;5090969;28;20047;-57
2023/08/19 10:30:31;;;;;;;13.55;11.13;;;25.00;99.90;;;;;;5077169;28;20037;-57
2023/08/19 10:33:03;;;;;;;14.18;12.45;;;25.10;99.90;;;;;;5060585;28;20643;-57
2023/08/19 10:35:49;;;;;;;15.25;12.52;;;25.20;99.90;;;;;;5075163;28;20086;-57
2023/08/19 10:38:15;;;;;;;17.85;12.15;;;25.20;99.90;;;;;;5084711;28;20051;-57
2023/08/19 10:40:41;;;;;;;14.60;13.07;;;25.30;99.90;;;;;;5100559;28;20036;-56
2023/08/19 10:43:07;;;;;;;13.35;11.90;;;25.40;99.90;;;;;;5097907;28;20192;-57
2023/08/19 10:45:34;;;;;;;16.25;12.63;;;25.50;99.90;;;;;;5079185;28;20044;-57
2023/08/19 10:48:00;;;;;;;15.63;12.60;;;25.60;99.90;;;;;;5058944;28;20048;-57
2023/08/19 10:50:26;;;;;;;16.58;13.23;;;25.70;99.90;;;;;;5060782;28;20044;-57
2023/08/19 10:52:59;;;;;;;14.38;12.75;;;25.80;99.90;;;;;;5075899;28;20036;-57
2023/08/19 10:55:25;;;;;;;15.10;12.30;;;25.80;99.90;;;;;;5083472;28;20047;-57
2023/08/19 10:57:52;;;;;;;18.73;13.10;;;26.00;99.90;;;;;;5079134;28;20211;-57
2023/08/19 11:00:23;;;;;;;17.13;13.38;;;26.00;99.90;;;;;;5087335;28;20051;-57
2023/08/19 11:02:49;;;;;;;16.95;13.77;;;26.10;99.90;;;;;;5081753;28;20044;-57
2023/08/19 11:05:24;;;;;;;20.42;14.50;;;26.10;99.90;;;;;;5080562;28;20051;-57
2023/08/19 11:07:51;;;;;;;19.15;13.98;;;26.10;99.90;;;;;;5084045;28;20045;-57
2023/08/19 11:10:17;;;;;;;19.40;14.50;;;26.20;99.90;;;;;;5066961;28;20052;-57
2023/08/19 11:12:45;;;;;;;17.65;14.70;;;26.30;99.90;;;;;;5074571;28;20048;-58
2023/08/19 11:15:11;;;;;;;17.83;15.35;;;26.40;99.90;;;;;;5079716;28;20503;-58
2023/08/19 11:17:37;;;;;;;21.33;15.70;;;26.30;99.90;;;;;;5078585;28;20438;-59
2023/08/19 11:20:10;;;;;;;22.08;19.30;;;26.50;99.90;;;;;;5078626;28;20071;-58
2023/08/19 11:22:46;;;;;;;23.73;20.50;;;26.60;99.90;;;;;;5076591;28;20040;-58
2023/08/19 11:25:13;;;;;;;22.17;19.50;;;26.70;99.90;;;;;;5079878;28;20060;-58
2023/08/19 11:27:39;;;;;;;26.95;19.88;;;26.70;99.90;;;;;;5091861;28;20056;-58
2023/08/19 11:30:14;;;;;;;24.95;20.33;;;26.70;99.90;;;;;;5099414;28;20051;-58
2023/08/19 11:32:46;;;;;;;20.95;18.95;;;26.70;99.90;;;;;;5075249;28;20036;-58
2023/08/19 11:35:12;;;;;;;26.83;23.40;;;26.60;99.90;;;;;;5070459;28;20331;-58
2023/08/19 11:37:40;;;;;;;29.52;25.90;;;26.50;99.90;;;;;;5081270;28;20049;-58
2023/08/19 11:40:07;;;;;;;34.47;27.98;;;26.50;99.90;;;;;;5062551;28;20037;-58
2023/08/19 11:42:32;;;;;;;38.65;31.48;;;26.40;99.90;;;;;;5083894;28;20091;-58
2023/08/19 11:44:58;;;;;;;42.40;34.00;;;26.50;99.90;;;;;;5071865;28;20049;-59
2023/08/19 11:47:25;;;;;;;39.67;33.38;;;26.50;99.90;;;;;;5086899;28;20131;-58
2023/08/19 11:49:51;;;;;;;41.42;33.80;;;26.50;99.90;;;;;;5081737;28;20057;-58
2023/08/19 11:52:20;;;;;;;34.97;29.08;;;26.50;99.90;;;;;;5090444;28;20059;-58
2023/08/19 11:55:03;;;;;;;35.35;26.65;;;26.60;99.90;;;;;;5084774;28;20055;-59
2023/08/19 11:57:36;;;;;;;30.90;25.00;;;26.60;99.90;;;;;;5080817;28;20048;-57
2023/08/19 12:00:13;;;;;;;32.05;24.30;;;26.40;99.90;;;;;;5069004;28;20055;-57
2023/08/19 12:02:39;;;;;;;34.78;25.98;;;26.20;99.90;;;;;;5063575;28;20056;-58
2023/08/19 12:05:05;;;;;;;31.70;25.90;;;26.10;99.90;;;;;;5061500;28;20032;-58
2023/08/19 12:07:31;;;;;;;34.88;26.77;;;26.10;99.90;;;;;;5063246;28;20049;-57
2023/08/19 12:09:58;;;;;;;35.63;25.90;;;26.00;99.90;;;;;;5094493;28;20044;-57
2023/08/19 12:12:24;;;;;;;35.63;26.45;;;26.00;99.90;;;;;;5072595;28;20033;-58
2023/08/19 12:14:51;;;;;;;26.58;22.92;;;25.90;99.90;;;;;;5082752;28;20044;-57
2023/08/19 12:17:17;;;;;;;29.48;23.30;;;25.70;99.90;;;;;;5081537;28;20048;-58
2023/08/19 12:19:45;;;;;;;24.92;19.55;;;25.70;99.90;;;;;;5083376;28;20080;-57
2023/08/19 12:22:10;;;;;;;23.75;17.65;;;25.60;99.90;;;;;;5080717;28;20074;-58
2023/08/19 12:24:36;;;;;;;18.88;14.60;;;25.50;99.90;;;;;;5082301;28;20041;-59
2023/08/19 12:27:03;;;;;;;17.10;13.50;;;25.50;99.90;;;;;;5081479;28;20849;-58
2023/08/19 12:29:29;;;;;;;15.02;11.20;;;25.50;99.90;;;;;;5082436;28;20041;-58